createdAt,value
2019-03-06T00:00:25.123Z,987.01
2019-03-06T00:01:25.101Z,986.96
2019-03-06T00:02:25.101Z,986.92
2019-03-06T00:03:25.081Z,986.94
2019-03-06T00:04:25.075Z,986.93
2019-03-06T00:05:25.073Z,986.89
2019-03-06T00:06:25.046Z,986.89
2019-03-06T00:07:25.037Z,986.91
2019-03-06T00:08:25.051Z,986.84
2019-03-06T00:09:25.025Z,986.84
2019-03-06T00:10:25.022Z,986.86
2019-03-06T00:11:24.993Z,986.85
2019-03-06T00:12:24.983Z,986.85
2019-03-06T00:13:24.973Z,986.83
2019-03-06T00:14:25.024Z,986.79
2019-03-06T00:15:24.963Z,986.83
2019-03-06T00:16:24.945Z,986.84
2019-03-06T00:17:24.931Z,986.87
2019-03-06T00:18:24.926Z,986.83
2019-03-06T00:19:24.909Z,986.78
2019-03-06T00:20:24.922Z,986.75
2019-03-06T00:21:24.887Z,986.80
2019-03-06T00:22:24.877Z,986.79
2019-03-06T00:23:24.871Z,986.80
2019-03-06T00:24:24.855Z,986.76
2019-03-06T00:25:24.856Z,986.74
2019-03-06T00:26:24.870Z,986.74
2019-03-06T00:27:24.827Z,986.77
2019-03-06T00:28:24.827Z,986.76
2019-03-06T00:29:24.802Z,986.74
2019-03-06T00:30:24.806Z,986.79
2019-03-06T00:31:24.783Z,986.75
2019-03-06T00:32:24.793Z,986.77
2019-03-06T00:33:24.758Z,986.82
2019-03-06T00:34:24.749Z,986.77
2019-03-06T00:35:24.762Z,986.78
2019-03-06T00:36:24.727Z,986.70
2019-03-06T00:37:24.719Z,986.72
2019-03-06T00:38:24.724Z,986.72
2019-03-06T00:39:24.705Z,986.73
2019-03-06T00:40:24.686Z,986.74
2019-03-06T00:41:24.697Z,986.73
2019-03-06T00:42:24.664Z,986.69
2019-03-06T00:43:24.652Z,986.75
2019-03-06T00:44:24.664Z,986.75
2019-03-06T00:45:24.633Z,986.67
2019-03-06T00:46:24.636Z,986.72
2019-03-06T00:47:24.614Z,986.75
2019-03-06T00:48:24.608Z,986.73
2019-03-06T00:49:24.587Z,986.74
2019-03-06T00:50:24.612Z,986.75
2019-03-06T00:51:24.590Z,986.69
2019-03-06T00:52:24.556Z,986.71
2019-03-06T00:53:24.544Z,986.66
2019-03-06T00:54:24.536Z,986.68
2019-03-06T00:55:24.527Z,986.64
2019-03-06T00:56:24.545Z,986.62
2019-03-06T00:57:24.503Z,986.66
2019-03-06T00:58:25.140Z,986.66
2019-03-06T00:59:24.480Z,986.70
2019-03-06T01:00:24.470Z,986.73
2019-03-06T01:01:24.470Z,986.71
2019-03-06T01:02:24.468Z,986.70
2019-03-06T01:03:24.438Z,986.68
2019-03-06T01:04:24.429Z,986.67
2019-03-06T01:05:24.429Z,986.60
2019-03-06T01:06:24.417Z,986.66
2019-03-06T01:07:24.396Z,986.65
2019-03-06T01:08:24.407Z,986.66
2019-03-06T01:09:24.506Z,986.69
2019-03-06T01:10:24.390Z,986.65
2019-03-06T01:11:24.365Z,986.62
2019-03-06T01:12:24.369Z,986.61
2019-03-06T01:13:24.347Z,986.62
2019-03-06T01:14:24.352Z,986.58
2019-03-06T01:15:24.310Z,986.54
2019-03-06T01:16:24.314Z,986.52
2019-03-06T01:17:24.327Z,986.50
2019-03-06T01:18:24.279Z,986.51
2019-03-06T01:19:24.270Z,986.55
2019-03-06T01:20:24.256Z,986.50
2019-03-06T01:21:24.261Z,986.47
2019-03-06T01:22:24.257Z,986.47
2019-03-06T01:23:24.225Z,986.47
2019-03-06T01:24:24.216Z,986.49
2019-03-06T01:25:24.203Z,986.45
2019-03-06T01:26:24.220Z,986.42
2019-03-06T01:27:24.183Z,986.46
2019-03-06T01:28:24.239Z,986.44
2019-03-06T01:29:24.167Z,986.36
2019-03-06T01:30:24.152Z,986.41
2019-03-06T01:31:24.151Z,986.30
2019-03-06T01:32:24.130Z,986.30
2019-03-06T01:33:24.119Z,986.29
2019-03-06T01:34:24.135Z,986.32
2019-03-06T01:35:24.098Z,986.29
2019-03-06T01:36:24.099Z,986.22
2019-03-06T01:37:24.078Z,986.20
2019-03-06T01:38:24.067Z,986.14
2019-03-06T01:39:24.064Z,986.14
2019-03-06T01:40:24.067Z,986.14
2019-03-06T01:41:24.047Z,986.17
2019-03-06T01:42:24.028Z,986.08
2019-03-06T01:43:24.021Z,985.99
2019-03-06T01:44:24.004Z,986.01
2019-03-06T01:45:23.994Z,986.00
2019-03-06T01:46:24.000Z,985.99
2019-03-06T01:47:23.978Z,985.89
2019-03-06T01:48:23.965Z,985.93
2019-03-06T01:49:23.950Z,985.86
2019-03-06T01:50:23.940Z,985.87
2019-03-06T01:51:23.941Z,985.86
2019-03-06T01:52:23.926Z,985.81
2019-03-06T01:53:23.914Z,985.76
2019-03-06T01:54:23.898Z,985.71
2019-03-06T01:55:23.888Z,985.71
2019-03-06T01:56:23.891Z,985.70
2019-03-06T01:57:23.869Z,985.67
2019-03-06T01:58:23.901Z,985.61
2019-03-06T01:59:23.847Z,985.62
2019-03-06T02:00:23.838Z,985.55
2019-03-06T02:01:23.825Z,985.57
2019-03-06T02:02:23.828Z,985.57
2019-03-06T02:03:23.804Z,985.52
2019-03-06T02:04:23.829Z,985.52
2019-03-06T02:05:23.786Z,985.49
2019-03-06T02:06:23.776Z,985.49
2019-03-06T02:07:23.776Z,985.44
2019-03-06T02:08:23.752Z,985.49
2019-03-06T02:09:23.742Z,985.46
2019-03-06T02:10:23.757Z,985.40
2019-03-06T02:11:23.724Z,985.44
2019-03-06T02:12:23.723Z,985.38
2019-03-06T02:13:23.699Z,985.39
2019-03-06T02:14:23.695Z,985.30
2019-03-06T02:15:23.679Z,985.30
2019-03-06T02:16:23.676Z,985.31
2019-03-06T02:17:23.670Z,985.31
2019-03-06T02:18:23.649Z,985.36
2019-03-06T02:19:23.641Z,985.35
2019-03-06T02:20:23.627Z,985.30
2019-03-06T02:21:23.620Z,985.27
2019-03-06T02:22:23.643Z,985.33
2019-03-06T02:23:23.595Z,985.31
2019-03-06T02:24:23.587Z,985.33
2019-03-06T02:25:23.577Z,985.24
2019-03-06T02:26:23.566Z,985.30
2019-03-06T02:27:23.566Z,985.34
2019-03-06T02:28:23.558Z,985.31
2019-03-06T02:29:23.563Z,985.29
2019-03-06T02:30:23.526Z,985.29
2019-03-06T02:31:23.518Z,985.30
2019-03-06T02:32:23.513Z,985.32
2019-03-06T02:33:23.501Z,985.27
2019-03-06T02:34:23.484Z,985.28
2019-03-06T02:35:23.486Z,985.25
2019-03-06T02:36:23.475Z,985.23
2019-03-06T02:37:23.467Z,985.21
2019-03-06T02:38:23.446Z,985.19
2019-03-06T02:39:23.427Z,985.21
2019-03-06T02:40:23.418Z,985.16
2019-03-06T02:41:23.406Z,985.18
2019-03-06T02:42:23.426Z,985.18
2019-03-06T02:43:23.388Z,985.23
2019-03-06T02:44:23.380Z,985.15
2019-03-06T02:45:23.368Z,985.15
2019-03-06T02:46:23.353Z,985.09
2019-03-06T02:47:23.354Z,985.18
2019-03-06T02:48:23.358Z,985.17
2019-03-06T02:49:23.322Z,985.11
2019-03-06T02:50:23.313Z,985.07
2019-03-06T02:51:23.312Z,985.11
2019-03-06T02:52:23.302Z,985.03
2019-03-06T02:53:23.281Z,985.04
2019-03-06T02:54:23.307Z,985.04
2019-03-06T02:55:23.262Z,985.03
2019-03-06T02:56:23.249Z,985.05
2019-03-06T02:57:23.248Z,985.02
2019-03-06T02:58:23.230Z,985.05
2019-03-06T02:59:23.217Z,985.05
2019-03-06T03:00:23.219Z,985.07
2019-03-06T03:01:23.197Z,985.01
2019-03-06T03:02:23.196Z,985.04
2019-03-06T03:03:23.177Z,985.03
2019-03-06T03:04:23.164Z,984.95
2019-03-06T03:05:23.155Z,984.93
2019-03-06T03:06:23.175Z,984.93
2019-03-06T03:07:23.145Z,984.93
2019-03-06T03:08:23.127Z,984.91
2019-03-06T03:09:23.129Z,984.89
2019-03-06T03:10:23.106Z,984.86
2019-03-06T03:11:23.091Z,984.89
2019-03-06T03:12:23.123Z,984.85
2019-03-06T03:13:23.070Z,984.91
2019-03-06T03:14:23.058Z,984.90
2019-03-06T03:15:23.048Z,984.85
2019-03-06T03:16:23.043Z,984.83
2019-03-06T03:17:23.221Z,984.84
2019-03-06T03:18:23.053Z,984.80
2019-03-06T03:19:23.009Z,984.84
2019-03-06T03:20:23.000Z,984.77
2019-03-06T03:21:22.988Z,984.73
2019-03-06T03:22:22.974Z,984.78
2019-03-06T03:23:22.974Z,984.75
2019-03-06T03:24:22.967Z,984.75
2019-03-06T03:25:22.941Z,984.78
2019-03-06T03:26:22.937Z,984.74
2019-03-06T03:27:22.921Z,984.81
2019-03-06T03:28:22.924Z,984.77
2019-03-06T03:29:22.901Z,984.77
2019-03-06T03:30:22.922Z,984.75
2019-03-06T03:31:22.882Z,984.77
2019-03-06T03:32:22.877Z,984.75
2019-03-06T03:33:22.872Z,984.73
2019-03-06T03:34:22.874Z,984.75
2019-03-06T03:35:22.837Z,984.75
2019-03-06T03:36:22.848Z,984.82
2019-03-06T03:37:22.819Z,984.79
2019-03-06T03:38:22.820Z,984.81
2019-03-06T03:39:22.796Z,984.75
2019-03-06T03:40:22.796Z,984.77
2019-03-06T03:41:22.774Z,984.76
2019-03-06T03:42:22.783Z,984.84
2019-03-06T03:43:22.765Z,984.84
2019-03-06T03:44:22.745Z,984.79
2019-03-06T03:45:22.737Z,984.83
2019-03-06T03:46:22.728Z,984.79
2019-03-06T03:47:22.711Z,984.91
2019-03-06T03:48:22.733Z,984.86
2019-03-06T03:49:22.690Z,984.84
2019-03-06T03:50:22.679Z,984.83
2019-03-06T03:51:22.668Z,984.82
2019-03-06T03:52:22.660Z,984.85
2019-03-06T03:53:22.662Z,984.80
2019-03-06T03:54:22.669Z,984.82
2019-03-06T03:55:22.631Z,984.87
2019-03-06T03:56:22.618Z,984.88
2019-03-06T03:57:22.604Z,984.88
2019-03-06T03:58:22.607Z,984.93
2019-03-06T03:59:22.586Z,984.90
2019-03-06T04:00:22.625Z,984.94
2019-03-06T04:01:22.561Z,984.92
2019-03-06T04:02:22.555Z,984.91
2019-03-06T04:03:22.565Z,984.94
2019-03-06T04:04:22.539Z,985.05
2019-03-06T04:05:22.528Z,985.02
2019-03-06T04:06:22.539Z,985.03
2019-03-06T04:07:22.499Z,985.05
2019-03-06T04:08:22.504Z,985.12
2019-03-06T04:09:22.482Z,985.09
2019-03-06T04:10:22.475Z,985.10
2019-03-06T04:11:22.465Z,985.08
2019-03-06T04:12:22.476Z,985.06
2019-03-06T04:13:22.454Z,984.93
2019-03-06T04:14:22.425Z,984.90
2019-03-06T04:15:22.422Z,984.80
2019-03-06T04:16:22.405Z,984.73
2019-03-06T04:17:22.404Z,984.73
2019-03-06T04:18:22.418Z,984.74
2019-03-06T04:19:22.382Z,984.77
2019-03-06T04:20:22.371Z,984.78
2019-03-06T04:21:22.365Z,984.81
2019-03-06T04:22:22.340Z,984.81
2019-03-06T04:23:22.335Z,984.84
2019-03-06T04:24:22.362Z,984.84
2019-03-06T04:25:22.309Z,984.86
2019-03-06T04:26:22.299Z,984.89
2019-03-06T04:27:22.291Z,984.93
2019-03-06T04:28:22.280Z,984.93
2019-03-06T04:29:22.350Z,984.92
2019-03-06T04:30:22.257Z,984.86
2019-03-06T04:31:22.248Z,984.76
2019-03-06T04:32:22.237Z,984.75
2019-03-06T04:33:22.319Z,984.79
2019-03-06T04:34:22.227Z,984.81
2019-03-06T04:35:22.226Z,984.77
2019-03-06T04:36:22.195Z,984.75
2019-03-06T04:37:22.185Z,984.69
2019-03-06T04:38:22.175Z,984.65
2019-03-06T04:39:22.178Z,984.66
2019-03-06T04:40:22.154Z,984.74
2019-03-06T04:41:22.163Z,984.71
2019-03-06T04:42:22.132Z,984.66
2019-03-06T04:43:22.123Z,984.63
2019-03-06T04:44:22.126Z,984.68
2019-03-06T04:45:22.108Z,984.63
2019-03-06T04:46:22.093Z,984.60
2019-03-06T04:47:22.101Z,984.61
2019-03-06T04:48:22.073Z,984.63
2019-03-06T04:49:22.076Z,984.66
2019-03-06T04:50:22.053Z,984.62
2019-03-06T04:51:22.039Z,984.63
2019-03-06T04:52:22.028Z,984.57
2019-03-06T04:53:22.031Z,984.54
2019-03-06T04:54:22.025Z,984.57
2019-03-06T04:55:22.000Z,984.49
2019-03-06T04:56:21.991Z,984.49
2019-03-06T04:57:21.977Z,984.50
2019-03-06T04:58:21.972Z,984.46
2019-03-06T04:59:21.989Z,984.47
2019-03-06T05:00:21.948Z,984.44
2019-03-06T05:01:21.937Z,984.44
2019-03-06T05:02:21.930Z,984.48
2019-03-06T05:03:21.920Z,984.46
2019-03-06T05:04:21.917Z,984.33
2019-03-06T05:05:21.926Z,984.32
2019-03-06T05:06:21.893Z,984.31
2019-03-06T05:07:21.874Z,984.32
2019-03-06T05:08:21.869Z,984.29
2019-03-06T05:09:21.871Z,984.23
2019-03-06T05:10:21.851Z,984.25
2019-03-06T05:11:21.859Z,984.19
2019-03-06T05:12:21.822Z,984.16
2019-03-06T05:13:21.817Z,984.15
2019-03-06T05:14:21.801Z,984.16
2019-03-06T05:15:21.806Z,984.18
2019-03-06T05:16:21.795Z,984.11
2019-03-06T05:17:21.831Z,984.13
2019-03-06T05:18:21.759Z,984.03
2019-03-06T05:19:21.751Z,983.98
2019-03-06T05:20:21.750Z,983.99
2019-03-06T05:21:21.732Z,983.97
2019-03-06T05:22:21.717Z,983.99
2019-03-06T05:23:21.723Z,983.93
2019-03-06T05:24:21.698Z,983.99
2019-03-06T05:25:21.699Z,983.95
2019-03-06T05:26:21.677Z,983.91
2019-03-06T05:27:21.670Z,983.93
2019-03-06T05:28:21.656Z,983.84
2019-03-06T05:29:21.700Z,983.82
2019-03-06T05:30:21.647Z,983.86
2019-03-06T05:31:21.626Z,983.84
2019-03-06T05:32:21.618Z,983.80
2019-03-06T05:33:21.604Z,983.80
2019-03-06T05:34:21.608Z,983.74
2019-03-06T05:35:21.626Z,983.76
2019-03-06T05:36:21.574Z,983.70
2019-03-06T05:37:21.575Z,983.62
2019-03-06T05:38:21.561Z,983.65
2019-03-06T05:39:21.542Z,983.62
2019-03-06T05:40:21.546Z,983.56
2019-03-06T05:41:21.551Z,983.55
2019-03-06T05:42:21.510Z,983.52
2019-03-06T05:43:21.500Z,983.51
2019-03-06T05:44:21.492Z,983.53
2019-03-06T05:45:21.492Z,983.46
2019-03-06T05:46:21.496Z,983.48
2019-03-06T05:47:21.482Z,983.46
2019-03-06T05:48:21.455Z,983.47
2019-03-06T05:49:21.436Z,983.46
2019-03-06T05:50:21.446Z,983.53
2019-03-06T05:51:21.471Z,983.50
2019-03-06T05:52:21.406Z,983.44
2019-03-06T05:53:21.477Z,983.53
2019-03-06T05:54:21.392Z,983.61
2019-03-06T05:55:21.395Z,983.51
2019-03-06T05:56:21.385Z,983.56
2019-03-06T05:57:21.353Z,983.57
2019-03-06T05:58:21.365Z,983.56
2019-03-06T05:59:21.335Z,983.56
2019-03-06T06:00:21.326Z,983.51
2019-03-06T06:01:21.326Z,983.56
2019-03-06T06:02:21.304Z,983.57
2019-03-06T06:03:21.291Z,983.54
2019-03-06T06:04:21.336Z,983.55
2019-03-06T06:05:21.270Z,983.58
2019-03-06T06:06:21.275Z,983.62
2019-03-06T06:07:21.255Z,983.68
2019-03-06T06:08:21.237Z,983.64
2019-03-06T06:09:21.229Z,983.63
2019-03-06T06:10:21.255Z,983.61
2019-03-06T06:11:21.219Z,983.65
2019-03-06T06:12:21.199Z,983.65
2019-03-06T06:13:21.187Z,983.66
2019-03-06T06:14:21.180Z,983.67
2019-03-06T06:15:21.166Z,983.64
2019-03-06T06:16:21.188Z,983.70
2019-03-06T06:17:21.168Z,983.66
2019-03-06T06:18:21.142Z,983.68
2019-03-06T06:19:21.132Z,983.64
2019-03-06T06:20:21.120Z,983.61
2019-03-06T06:21:21.115Z,983.62
2019-03-06T06:22:21.126Z,983.61
2019-03-06T06:23:21.084Z,983.53
2019-03-06T06:24:21.072Z,983.59
2019-03-06T06:25:21.065Z,983.53
2019-03-06T06:26:21.064Z,983.58
2019-03-06T06:27:21.041Z,983.54
2019-03-06T06:28:21.039Z,983.51
2019-03-06T06:29:21.021Z,983.57
2019-03-06T06:30:22.127Z,983.54
2019-03-06T06:31:21.009Z,983.48
2019-03-06T06:32:20.988Z,983.53
2019-03-06T06:33:20.994Z,983.48
2019-03-06T06:34:20.994Z,983.43
2019-03-06T06:35:20.961Z,983.49
2019-03-06T06:36:20.960Z,983.54
2019-03-06T06:37:20.936Z,983.57
2019-03-06T06:38:20.925Z,983.54
2019-03-06T06:39:20.917Z,983.50
2019-03-06T06:40:20.920Z,983.46
2019-03-06T06:41:20.896Z,983.43
2019-03-06T06:42:20.902Z,983.42
2019-03-06T06:43:20.879Z,983.44
2019-03-06T06:44:20.869Z,983.44
2019-03-06T06:45:20.855Z,983.39
2019-03-06T06:46:20.901Z,983.40
2019-03-06T06:47:20.842Z,983.36
2019-03-06T06:48:20.822Z,983.32
2019-03-06T06:49:20.816Z,983.40
2019-03-06T06:50:20.799Z,983.37
2019-03-06T06:51:20.792Z,983.42
2019-03-06T06:52:20.790Z,983.40
2019-03-06T06:53:20.815Z,983.37
2019-03-06T06:54:20.760Z,983.31
2019-03-06T06:55:20.764Z,983.33
2019-03-06T06:56:20.735Z,983.25
2019-03-06T06:57:20.796Z,983.26
2019-03-06T06:58:20.716Z,983.27
2019-03-06T06:59:20.730Z,983.28
2019-03-06T07:00:20.696Z,983.21
2019-03-06T07:01:20.685Z,983.24
2019-03-06T07:02:20.685Z,983.26
2019-03-06T07:03:22.303Z,983.22
2019-03-06T07:04:20.657Z,983.21
2019-03-06T07:05:20.658Z,983.19
2019-03-06T07:06:20.631Z,983.16
2019-03-06T07:07:20.634Z,983.17
2019-03-06T07:08:20.617Z,983.31
2019-03-06T07:09:20.600Z,983.32
2019-03-06T07:10:20.595Z,983.27
2019-03-06T07:11:20.629Z,983.25
2019-03-06T07:12:20.589Z,983.24
2019-03-06T07:13:20.567Z,983.24
2019-03-06T07:14:20.546Z,983.20
2019-03-06T07:15:20.538Z,983.26
2019-03-06T07:16:20.527Z,983.28
2019-03-06T07:17:20.540Z,983.31
2019-03-06T07:18:20.506Z,983.28
2019-03-06T07:19:20.494Z,983.33
2019-03-06T07:20:20.485Z,983.22
2019-03-06T07:21:20.486Z,983.24
2019-03-06T07:22:20.477Z,983.23
2019-03-06T07:23:20.460Z,983.22
2019-03-06T07:24:20.442Z,983.23
2019-03-06T07:25:20.431Z,983.20
2019-03-06T07:26:20.419Z,983.22
2019-03-06T07:27:20.422Z,983.19
2019-03-06T07:28:20.401Z,983.12
2019-03-06T07:29:20.395Z,983.09
2019-03-06T07:30:20.400Z,983.06
2019-03-06T07:31:20.376Z,983.05
2019-03-06T07:32:20.368Z,983.07
2019-03-06T07:33:20.356Z,983.01
2019-03-06T07:34:20.350Z,982.96
2019-03-06T07:35:20.329Z,982.97
2019-03-06T07:36:20.357Z,982.94
2019-03-06T07:37:28.283Z,982.90
2019-03-06T07:38:21.299Z,982.94
2019-03-06T07:39:20.295Z,982.95
2019-03-06T07:40:20.341Z,982.93
2019-03-06T07:41:20.269Z,982.94
2019-03-06T07:42:20.322Z,982.98
2019-03-06T07:43:20.240Z,982.98
2019-03-06T07:44:29.584Z,982.98
2019-03-06T07:45:21.219Z,982.94
2019-03-06T07:46:20.209Z,983.03
2019-03-06T07:47:20.231Z,982.99
2019-03-06T07:48:20.234Z,983.03
2019-03-06T07:49:20.181Z,982.97
2019-03-06T07:50:20.168Z,983.02
2019-03-06T07:51:20.160Z,982.99
2019-03-06T07:52:20.146Z,982.93
2019-03-06T07:53:20.147Z,982.93
2019-03-06T07:54:20.162Z,982.86
2019-03-06T07:55:20.114Z,982.87
2019-03-06T07:56:20.102Z,982.91
2019-03-06T07:57:20.096Z,982.89
2019-03-06T07:58:20.108Z,982.89
2019-03-06T07:59:20.070Z,982.85
2019-03-06T08:00:20.067Z,982.79
2019-03-06T08:01:20.074Z,982.81
2019-03-06T08:02:20.039Z,982.82
2019-03-06T08:03:20.040Z,982.76
2019-03-06T08:04:20.017Z,982.68
2019-03-06T08:05:20.006Z,982.73
2019-03-06T08:06:20.040Z,982.71
2019-03-06T08:07:20.004Z,982.72
2019-03-06T08:08:19.991Z,982.74
2019-03-06T08:09:19.966Z,982.70
2019-03-06T08:10:19.955Z,982.58
2019-03-06T08:11:19.943Z,982.56
2019-03-06T08:12:19.942Z,982.59
2019-03-06T08:13:19.960Z,982.49
2019-03-06T08:14:22.436Z,982.46
2019-03-06T08:15:19.900Z,982.41
2019-03-06T08:16:19.904Z,982.41
2019-03-06T08:17:19.878Z,982.43
2019-03-06T08:18:19.878Z,982.38
2019-03-06T08:19:19.869Z,982.41
2019-03-06T08:20:19.931Z,982.40
2019-03-06T08:21:19.861Z,982.32
2019-03-06T08:22:19.848Z,982.27
2019-03-06T08:23:19.843Z,982.30
2019-03-06T08:24:19.846Z,982.24
2019-03-06T08:25:19.806Z,982.24
2019-03-06T08:26:19.809Z,982.24
2019-03-06T08:27:19.794Z,982.25
2019-03-06T08:28:19.827Z,982.21
2019-03-06T08:29:19.770Z,982.17
2019-03-06T08:30:19.769Z,982.19
2019-03-06T08:31:19.746Z,982.14
2019-03-06T08:32:19.733Z,982.04
2019-03-06T08:33:19.729Z,982.02
2019-03-06T08:34:19.703Z,981.98
2019-03-06T08:35:19.684Z,981.97
2019-03-06T08:36:19.686Z,981.94
2019-03-06T08:37:19.849Z,981.96
2019-03-06T08:38:19.684Z,981.91
2019-03-06T08:39:19.660Z,981.90
2019-03-06T08:40:19.651Z,981.89
2019-03-06T08:41:19.622Z,981.81
2019-03-06T08:42:19.612Z,981.79
2019-03-06T08:43:19.636Z,981.82
2019-03-06T08:44:19.601Z,981.83
2019-03-06T08:45:19.602Z,981.85
2019-03-06T08:46:19.590Z,981.79
2019-03-06T08:47:19.601Z,981.78
2019-03-06T08:48:19.572Z,981.81
2019-03-06T08:49:19.537Z,981.72
2019-03-06T08:50:19.544Z,981.79
2019-03-06T08:51:19.521Z,981.70
2019-03-06T08:52:19.515Z,981.67
2019-03-06T08:53:19.530Z,981.66
2019-03-06T08:54:19.483Z,981.73
2019-03-06T08:55:19.486Z,981.72
2019-03-06T08:56:19.538Z,981.70
2019-03-06T08:57:19.467Z,981.60
2019-03-06T08:58:19.467Z,981.63
2019-03-06T08:59:19.443Z,981.62
2019-03-06T09:00:19.442Z,981.65
2019-03-06T09:01:19.418Z,981.66
2019-03-06T09:02:19.404Z,981.55
2019-03-06T09:03:19.439Z,981.59
2019-03-06T09:04:19.377Z,981.49
2019-03-06T09:05:19.369Z,981.49
2019-03-06T09:06:19.356Z,981.49
2019-03-06T09:07:19.345Z,981.49
2019-03-06T09:08:19.388Z,981.47
2019-03-06T09:09:19.331Z,981.49
2019-03-06T09:10:19.315Z,981.50
2019-03-06T09:11:19.301Z,981.49
2019-03-06T09:12:19.291Z,981.45
2019-03-06T09:13:19.290Z,981.49
2019-03-06T09:14:19.316Z,981.50
2019-03-06T09:15:19.272Z,981.46
2019-03-06T09:16:19.253Z,981.50
2019-03-06T09:17:19.241Z,981.49
2019-03-06T09:18:19.235Z,981.49
2019-03-06T09:19:19.226Z,981.57
2019-03-06T09:20:19.232Z,981.48
2019-03-06T09:21:19.238Z,981.56
2019-03-06T09:22:19.192Z,981.54
2019-03-06T09:23:23.196Z,981.55
2019-03-06T09:24:19.192Z,981.47
2019-03-06T09:25:19.185Z,981.50
2019-03-06T09:26:19.143Z,981.47
2019-03-06T09:27:19.284Z,981.42
2019-03-06T09:28:20.615Z,981.42
2019-03-06T09:29:19.128Z,981.44
2019-03-06T09:30:19.753Z,981.43
2019-03-06T09:31:19.128Z,981.33
2019-03-06T09:32:19.075Z,981.35
2019-03-06T09:33:19.071Z,981.35
2019-03-06T09:34:19.081Z,981.33
2019-03-06T09:35:19.070Z,981.32
2019-03-06T09:36:19.153Z,981.25
2019-03-06T09:37:19.034Z,981.28
2019-03-06T09:38:19.065Z,981.25
2019-03-06T09:39:19.020Z,981.28
2019-03-06T09:40:18.993Z,981.26
2019-03-06T09:41:19.006Z,981.22
2019-03-06T09:42:18.983Z,981.16
2019-03-06T09:43:19.151Z,981.17
2019-03-06T09:44:18.967Z,981.17
2019-03-06T09:45:18.943Z,981.18
2019-03-06T09:46:18.928Z,981.18
2019-03-06T09:47:18.931Z,981.18
2019-03-06T09:48:18.906Z,981.09
2019-03-06T09:49:18.907Z,981.07
2019-03-06T09:50:18.992Z,981.07
2019-03-06T09:51:18.883Z,981.08
2019-03-06T09:52:18.862Z,981.13
2019-03-06T09:53:18.860Z,981.16
2019-03-06T09:54:18.873Z,981.12
2019-03-06T09:55:18.836Z,981.11
2019-03-06T09:56:18.823Z,981.08
2019-03-06T09:57:18.812Z,981.04
2019-03-06T09:58:18.867Z,981.00
2019-03-06T09:59:18.802Z,981.01
2019-03-06T10:00:18.809Z,981.09
2019-03-06T10:01:18.763Z,981.03
2019-03-06T10:02:18.769Z,980.99
2019-03-06T10:03:18.777Z,980.93
2019-03-06T10:04:18.752Z,981.08
2019-03-06T10:05:18.722Z,981.10
2019-03-06T10:06:18.708Z,981.12
2019-03-06T10:07:18.700Z,981.09
2019-03-06T10:08:18.769Z,981.06
2019-03-06T10:09:18.741Z,980.97
2019-03-06T10:10:18.665Z,980.98
2019-03-06T10:11:20.219Z,981.04
2019-03-06T10:12:18.659Z,981.07
2019-03-06T10:13:18.643Z,980.97
2019-03-06T10:14:18.659Z,981.00
2019-03-06T10:15:18.624Z,980.96
2019-03-06T10:16:18.600Z,980.91
2019-03-06T10:17:18.590Z,980.90
2019-03-06T10:18:18.579Z,980.81
2019-03-06T10:19:18.577Z,980.78
2019-03-06T10:20:25.157Z,980.73
2019-03-06T10:21:19.582Z,980.84
2019-03-06T10:22:18.534Z,980.77
2019-03-06T10:23:18.530Z,980.69
2019-03-06T10:24:18.515Z,980.76
2019-03-06T10:25:18.511Z,980.80
2019-03-06T10:26:18.500Z,980.74
2019-03-06T10:27:18.480Z,980.69
2019-03-06T10:28:27.528Z,980.55
2019-03-06T10:29:19.456Z,980.66
2019-03-06T10:30:18.792Z,980.66
2019-03-06T10:31:18.440Z,980.64
2019-03-06T10:32:18.429Z,980.58
2019-03-06T10:33:18.415Z,980.55
2019-03-06T10:34:18.402Z,980.56
2019-03-06T10:35:18.410Z,980.59
2019-03-06T10:36:18.381Z,980.58
2019-03-06T10:37:18.444Z,980.60
2019-03-06T10:38:18.354Z,980.71
2019-03-06T10:39:18.351Z,980.55
2019-03-06T10:40:18.422Z,980.45
2019-03-06T10:41:18.323Z,980.46
2019-03-06T10:42:18.349Z,980.51
2019-03-06T10:43:18.301Z,980.51
2019-03-06T10:44:18.297Z,980.44
2019-03-06T10:45:18.354Z,980.39
2019-03-06T10:46:18.269Z,980.32
2019-03-06T10:47:18.289Z,980.39
2019-03-06T10:48:18.249Z,980.33
2019-03-06T10:49:18.275Z,980.42
2019-03-06T10:50:26.376Z,980.41
2019-03-06T10:51:19.279Z,980.37
2019-03-06T10:52:18.239Z,980.29
2019-03-06T10:53:18.195Z,980.28
2019-03-06T10:54:18.189Z,980.33
2019-03-06T10:55:18.229Z,980.33
2019-03-06T10:56:18.231Z,980.28
2019-03-06T10:57:18.152Z,980.25
2019-03-06T10:58:18.194Z,980.27
2019-03-06T10:59:18.135Z,980.20
2019-03-06T11:00:18.119Z,980.13
2019-03-06T11:01:18.131Z,980.05
2019-03-06T11:02:18.208Z,980.13
2019-03-06T11:03:18.109Z,980.13
2019-03-06T11:04:18.093Z,980.12
2019-03-06T11:05:18.075Z,980.05
2019-03-06T11:06:18.072Z,980.04
2019-03-06T11:07:18.048Z,980.09
2019-03-06T11:08:18.037Z,980.12
2019-03-06T11:09:18.056Z,980.10
2019-03-06T11:10:23.945Z,980.10
2019-03-06T11:11:19.082Z,980.12
2019-03-06T11:12:17.990Z,980.11
2019-03-06T11:13:17.994Z,980.06
2019-03-06T11:14:17.976Z,980.07
2019-03-06T11:15:17.972Z,980.05
2019-03-06T11:16:18.110Z,980.03
2019-03-06T11:17:17.939Z,980.04
2019-03-06T11:18:17.925Z,980.01
2019-03-06T11:19:17.955Z,979.97
2019-03-06T11:20:17.944Z,980.01
2019-03-06T11:21:17.910Z,979.95
2019-03-06T11:22:17.884Z,979.83
2019-03-06T11:23:17.896Z,979.88
2019-03-06T11:24:17.867Z,979.89
2019-03-06T11:25:17.917Z,979.88
2019-03-06T11:26:17.943Z,979.90
2019-03-06T11:27:17.829Z,979.81
2019-03-06T11:28:17.834Z,979.81
2019-03-06T11:29:19.357Z,979.77
2019-03-06T11:30:17.881Z,979.76
2019-03-06T11:31:17.809Z,979.72
2019-03-06T11:32:17.787Z,979.66
2019-03-06T11:33:17.767Z,979.67
2019-03-06T11:34:17.759Z,979.73
2019-03-06T11:35:17.744Z,979.70
2019-03-06T11:36:17.756Z,979.67
2019-03-06T11:37:17.720Z,979.65
2019-03-06T11:38:17.723Z,979.59
2019-03-06T11:39:17.711Z,979.53
2019-03-06T11:40:17.689Z,979.49
2019-03-06T11:41:17.774Z,979.53
2019-03-06T11:42:17.686Z,979.56
2019-03-06T11:43:17.658Z,979.57
2019-03-06T11:44:17.650Z,979.58
2019-03-06T11:45:17.635Z,979.55
2019-03-06T11:46:17.650Z,979.60
2019-03-06T11:47:17.615Z,979.56
2019-03-06T11:48:17.601Z,979.46
2019-03-06T11:49:17.590Z,979.45
2019-03-06T11:50:17.583Z,979.41
2019-03-06T11:51:17.645Z,979.42
2019-03-06T11:52:17.559Z,979.38
2019-03-06T11:53:17.545Z,979.30
2019-03-06T11:54:17.541Z,979.38
2019-03-06T11:55:17.535Z,979.29
2019-03-06T11:56:17.536Z,979.32
2019-03-06T11:57:17.504Z,979.28
2019-03-06T11:58:17.497Z,979.29
2019-03-06T11:59:17.500Z,979.34
2019-03-06T12:00:17.494Z,979.30
2019-03-06T12:01:17.476Z,979.34
2019-03-06T12:02:17.454Z,979.34
2019-03-06T12:03:17.462Z,979.33
2019-03-06T12:04:17.443Z,979.28
2019-03-06T12:05:17.444Z,979.26
2019-03-06T12:06:17.419Z,979.28
2019-03-06T12:07:17.410Z,979.35
2019-03-06T12:08:17.382Z,979.35
2019-03-06T12:09:17.372Z,979.22
2019-03-06T12:10:17.383Z,979.22
2019-03-06T12:11:17.376Z,979.22
2019-03-06T12:12:17.342Z,979.21
2019-03-06T12:13:17.358Z,979.20
2019-03-06T12:14:17.330Z,979.08
2019-03-06T12:15:17.316Z,979.01
2019-03-06T12:16:17.331Z,979.03
2019-03-06T12:17:17.323Z,979.03
2019-03-06T12:18:17.291Z,978.98
2019-03-06T12:19:17.271Z,979.00
2019-03-06T12:20:17.257Z,979.02
2019-03-06T12:21:17.250Z,979.02
2019-03-06T12:22:17.276Z,978.93
2019-03-06T12:23:17.225Z,978.91
2019-03-06T12:24:17.309Z,978.96
2019-03-06T12:25:17.203Z,978.96
2019-03-06T12:26:17.200Z,978.89
2019-03-06T12:27:17.239Z,978.90
2019-03-06T12:28:17.183Z,978.96